sensor_id;sensor_type;location;lat;lon;timestamp;P1;durP1;ratioP1;P2;durP2;ratioP2
20535;SDS011;10426;49.420;8.390;2023-09-19T00:00:30;1.38;;;1.08;;
20535;SDS011;10426;49.420;8.390;2023-09-19T00:02:59;1.10;;;1.10;;
20535;SDS011;10426;49.420;8.390;2023-09-19T00:05:27;1.92;;;1.00;;
20535;SDS011;10426;49.420;8.390;2023-09-19T00:07:55;1.30;;;1.17;;
20535;SDS011;10426;49.420;8.390;2023-09-19T00:10:23;1.65;;;1.15;;
20535;SDS011;10426;49.420;8.390;2023-09-19T00:12:52;1.08;;;0.98;;
20535;SDS011;10426;49.420;8.390;2023-09-19T00:15:20;1.45;;;1.20;;
20535;SDS011;10426;49.420;8.390;2023-09-19T00:17:47;1.42;;;1.08;;
20535;SDS011;10426;49.420;8.390;2023-09-19T00:20:14;1.83;;;0.95;;
20535;SDS011;10426;49.420;8.390;2023-09-19T00:22:44;2.53;;;1.20;;
20535;SDS011;10426;49.420;8.390;2023-09-19T00:25:11;1.00;;;1.00;;
20535;SDS011;10426;49.420;8.390;2023-09-19T00:27:41;2.75;;;1.23;;
20535;SDS011;10426;49.420;8.390;2023-09-19T00:30:09;4.53;;;2.60;;
20535;SDS011;10426;49.420;8.390;2023-09-19T00:32:40;9.23;;;4.90;;
20535;SDS011;10426;49.420;8.390;2023-09-19T00:35:06;27.73;;;12.93;;
20535;SDS011;10426;49.420;8.390;2023-09-19T00:37:34;20.33;;;9.45;;
20535;SDS011;10426;49.420;8.390;2023-09-19T00:40:02;7.22;;;3.55;;
20535;SDS011;10426;49.420;8.390;2023-09-19T00:42:30;2.95;;;1.52;;
20535;SDS011;10426;49.420;8.390;2023-09-19T00:44:57;2.50;;;1.50;;
20535;SDS011;10426;49.420;8.390;2023-09-19T00:47:23;2.30;;;1.30;;
20535;SDS011;10426;49.420;8.390;2023-09-19T00:49:50;1.95;;;1.10;;
20535;SDS011;10426;49.420;8.390;2023-09-19T00:52:18;2.10;;;1.20;;
20535;SDS011;10426;49.420;8.390;2023-09-19T00:54:46;2.33;;;1.20;;
20535;SDS011;10426;49.420;8.390;2023-09-19T00:57:14;1.40;;;1.30;;
20535;SDS011;10426;49.420;8.390;2023-09-19T00:59:42;2.08;;;1.08;;
20535;SDS011;10426;49.420;8.390;2023-09-19T01:02:09;2.67;;;1.98;;
20535;SDS011;10426;49.420;8.390;2023-09-19T01:04:39;11.10;;;6.27;;
20535;SDS011;10426;49.420;8.390;2023-09-19T01:07:07;10.73;;;5.43;;
20535;SDS011;10426;49.420;8.390;2023-09-19T01:09:33;11.02;;;4.97;;
20535;SDS011;10426;49.420;8.390;2023-09-19T01:12:01;13.25;;;5.82;;
20535;SDS011;10426;49.420;8.390;2023-09-19T01:14:31;5.07;;;2.20;;
20535;SDS011;10426;49.420;8.390;2023-09-19T01:17:03;2.75;;;1.35;;
20535;SDS011;10426;49.420;8.390;2023-09-19T01:19:52;2.83;;;1.30;;
20535;SDS011;10426;49.420;8.390;2023-09-19T01:22:25;2.53;;;1.15;;
20535;SDS011;10426;49.420;8.390;2023-09-19T01:25:05;1.20;;;1.20;;
20535;SDS011;10426;49.420;8.390;2023-09-19T01:27:52;2.55;;;1.20;;
20535;SDS011;10426;49.420;8.390;2023-09-19T01:30:21;1.48;;;1.13;;
20535;SDS011;10426;49.420;8.390;2023-09-19T01:32:49;3.47;;;1.48;;
20535;SDS011;10426;49.420;8.390;2023-09-19T01:35:17;3.88;;;1.30;;
20535;SDS011;10426;49.420;8.390;2023-09-19T01:37:44;3.40;;;1.45;;
20535;SDS011;10426;49.420;8.390;2023-09-19T01:40:11;2.55;;;1.30;;
20535;SDS011;10426;49.420;8.390;2023-09-19T01:42:43;1.02;;;1.00;;
20535;SDS011;10426;49.420;8.390;2023-09-19T01:45:11;1.95;;;1.23;;
20535;SDS011;10426;49.420;8.390;2023-09-19T01:47:43;2.90;;;1.10;;
20535;SDS011;10426;49.420;8.390;2023-09-19T01:50:13;2.10;;;1.20;;
20535;SDS011;10426;49.420;8.390;2023-09-19T01:52:46;2.55;;;1.10;;
20535;SDS011;10426;49.420;8.390;2023-09-19T01:55:13;1.25;;;1.15;;
20535;SDS011;10426;49.420;8.390;2023-09-19T01:58:01;1.92;;;1.20;;
20535;SDS011;10426;49.420;8.390;2023-09-19T02:00:30;4.70;;;1.40;;
20535;SDS011;10426;49.420;8.390;2023-09-19T02:03:00;2.70;;;1.13;;
20535;SDS011;10426;49.420;8.390;2023-09-19T02:05:28;1.63;;;1.20;;
20535;SDS011;10426;49.420;8.390;2023-09-19T02:07:54;4.85;;;1.33;;
20535;SDS011;10426;49.420;8.390;2023-09-19T02:10:22;1.50;;;1.20;;
20535;SDS011;10426;49.420;8.390;2023-09-19T02:12:49;5.53;;;2.05;;
20535;SDS011;10426;49.420;8.390;2023-09-19T02:15:16;5.65;;;3.00;;
20535;SDS011;10426;49.420;8.390;2023-09-19T02:17:43;2.00;;;1.57;;
20535;SDS011;10426;49.420;8.390;2023-09-19T02:20:12;3.92;;;1.30;;
20535;SDS011;10426;49.420;8.390;2023-09-19T02:22:39;1.60;;;1.50;;
20535;SDS011;10426;49.420;8.390;2023-09-19T02:25:06;1.35;;;1.17;;
20535;SDS011;10426;49.420;8.390;2023-09-19T02:27:33;2.20;;;1.30;;
20535;SDS011;10426;49.420;8.390;2023-09-19T02:29:59;1.98;;;1.20;;
20535;SDS011;10426;49.420;8.390;2023-09-19T02:32:30;2.73;;;1.17;;
20535;SDS011;10426;49.420;8.390;2023-09-19T02:34:57;2.53;;;1.50;;
20535;SDS011;10426;49.420;8.390;2023-09-19T02:37:26;1.50;;;1.23;;
20535;SDS011;10426;49.420;8.390;2023-09-19T02:39:52;2.15;;;1.13;;
20535;SDS011;10426;49.420;8.390;2023-09-19T02:42:19;2.85;;;1.15;;
20535;SDS011;10426;49.420;8.390;2023-09-19T02:44:46;1.58;;;1.10;;
20535;SDS011;10426;49.420;8.390;2023-09-19T02:47:13;2.20;;;1.30;;
20535;SDS011;10426;49.420;8.390;2023-09-19T02:49:42;2.30;;;1.27;;
20535;SDS011;10426;49.420;8.390;2023-09-19T02:52:08;2.45;;;1.30;;
20535;SDS011;10426;49.420;8.390;2023-09-19T02:54:37;1.55;;;1.15;;
20535;SDS011;10426;49.420;8.390;2023-09-19T02:57:04;1.23;;;1.10;;
20535;SDS011;10426;49.420;8.390;2023-09-19T02:59:32;1.50;;;1.10;;
20535;SDS011;10426;49.420;8.390;2023-09-19T03:02:02;1.33;;;1.23;;
20535;SDS011;10426;49.420;8.390;2023-09-19T03:04:30;3.05;;;1.60;;
20535;SDS011;10426;49.420;8.390;2023-09-19T03:06:58;1.48;;;1.10;;
20535;SDS011;10426;49.420;8.390;2023-09-19T03:09:26;1.30;;;1.20;;
20535;SDS011;10426;49.420;8.390;2023-09-19T03:11:54;1.83;;;1.30;;
20535;SDS011;10426;49.420;8.390;2023-09-19T03:14:21;1.48;;;1.20;;
20535;SDS011;10426;49.420;8.390;2023-09-19T03:16:48;1.33;;;1.23;;
20535;SDS011;10426;49.420;8.390;2023-09-19T03:19:16;1.30;;;1.27;;
20535;SDS011;10426;49.420;8.390;2023-09-19T03:21:42;1.75;;;1.38;;
20535;SDS011;10426;49.420;8.390;2023-09-19T03:24:09;1.63;;;1.35;;
20535;SDS011;10426;49.420;8.390;2023-09-19T03:26:36;1.40;;;1.30;;
20535;SDS011;10426;49.420;8.390;2023-09-19T03:29:05;1.40;;;1.30;;
20535;SDS011;10426;49.420;8.390;2023-09-19T03:31:33;3.33;;;1.42;;
20535;SDS011;10426;49.420;8.390;2023-09-19T03:34:02;1.45;;;1.30;;
20535;SDS011;10426;49.420;8.390;2023-09-19T03:36:29;2.13;;;1.50;;
20535;SDS011;10426;49.420;8.390;2023-09-19T03:38:56;2.47;;;1.42;;
20535;SDS011;10426;49.420;8.390;2023-09-19T03:41:23;1.45;;;1.27;;
20535;SDS011;10426;49.420;8.390;2023-09-19T03:43:49;2.58;;;1.48;;
20535;SDS011;10426;49.420;8.390;2023-09-19T03:46:17;2.13;;;1.40;;
20535;SDS011;10426;49.420;8.390;2023-09-19T03:48:44;6.20;;;2.90;;
20535;SDS011;10426;49.420;8.390;2023-09-19T03:51:11;5.25;;;2.70;;
20535;SDS011;10426;49.420;8.390;2023-09-19T03:53:37;1.83;;;1.33;;
20535;SDS011;10426;49.420;8.390;2023-09-19T03:56:04;6.28;;;2.90;;
20535;SDS011;10426;49.420;8.390;2023-09-19T03:58:30;3.60;;;1.92;;
20535;SDS011;10426;49.420;8.390;2023-09-19T04:00:57;3.28;;;1.80;;
20535;SDS011;10426;49.420;8.390;2023-09-19T04:03:26;3.10;;;1.70;;
20535;SDS011;10426;49.420;8.390;2023-09-19T04:06:00;3.33;;;1.98;;
20535;SDS011;10426;49.420;8.390;2023-09-19T04:08:30;4.05;;;1.90;;
20535;SDS011;10426;49.420;8.390;2023-09-19T04:10:56;2.50;;;2.08;;
20535;SDS011;10426;49.420;8.390;2023-09-19T04:13:23;3.22;;;1.80;;
20535;SDS011;10426;49.420;8.390;2023-09-19T04:15:50;3.60;;;1.73;;
20535;SDS011;10426;49.420;8.390;2023-09-19T04:18:16;2.88;;;1.73;;
20535;SDS011;10426;49.420;8.390;2023-09-19T04:20:48;3.08;;;1.83;;
20535;SDS011;10426;49.420;8.390;2023-09-19T04:23:15;2.83;;;1.70;;
20535;SDS011;10426;49.420;8.390;2023-09-19T04:25:42;3.38;;;1.80;;
20535;SDS011;10426;49.420;8.390;2023-09-19T04:28:08;4.68;;;1.83;;
20535;SDS011;10426;49.420;8.390;2023-09-19T04:30:36;2.50;;;1.80;;
20535;SDS011;10426;49.420;8.390;2023-09-19T04:33:03;2.88;;;1.70;;
20535;SDS011;10426;49.420;8.390;2023-09-19T04:35:30;4.22;;;1.60;;
20535;SDS011;10426;49.420;8.390;2023-09-19T04:37:58;2.40;;;1.70;;
20535;SDS011;10426;49.420;8.390;2023-09-19T04:40:25;2.92;;;1.60;;
20535;SDS011;10426;49.420;8.390;2023-09-19T04:42:53;4.95;;;2.20;;
20535;SDS011;10426;49.420;8.390;2023-09-19T04:45:21;2.97;;;1.87;;
20535;SDS011;10426;49.420;8.390;2023-09-19T04:47:48;3.45;;;1.73;;
20535;SDS011;10426;49.420;8.390;2023-09-19T04:50:14;2.03;;;1.50;;
20535;SDS011;10426;49.420;8.390;2023-09-19T04:52:42;3.87;;;1.70;;
20535;SDS011;10426;49.420;8.390;2023-09-19T04:55:11;4.00;;;1.80;;
20535;SDS011;10426;49.420;8.390;2023-09-19T04:57:41;3.42;;;1.77;;
20535;SDS011;10426;49.420;8.390;2023-09-19T05:00:08;2.65;;;1.50;;
20535;SDS011;10426;49.420;8.390;2023-09-19T05:02:38;3.42;;;1.70;;
20535;SDS011;10426;49.420;8.390;2023-09-19T05:05:05;4.65;;;1.80;;
20535;SDS011;10426;49.420;8.390;2023-09-19T05:07:32;1.65;;;1.55;;
20535;SDS011;10426;49.420;8.390;2023-09-19T05:09:59;4.50;;;1.83;;
20535;SDS011;10426;49.420;8.390;2023-09-19T05:12:27;1.88;;;1.58;;
20535;SDS011;10426;49.420;8.390;2023-09-19T05:14:54;3.45;;;1.70;;
20535;SDS011;10426;49.420;8.390;2023-09-19T05:17:20;2.33;;;1.55;;
20535;SDS011;10426;49.420;8.390;2023-09-19T05:19:47;1.80;;;1.38;;
20535;SDS011;10426;49.420;8.390;2023-09-19T05:22:13;2.47;;;1.50;;
20535;SDS011;10426;49.420;8.390;2023-09-19T05:24:40;2.03;;;1.60;;
20535;SDS011;10426;49.420;8.390;2023-09-19T05:27:07;2.20;;;1.65;;
20535;SDS011;10426;49.420;8.390;2023-09-19T05:29:35;2.85;;;1.67;;
20535;SDS011;10426;49.420;8.390;2023-09-19T05:32:01;2.03;;;1.40;;
20535;SDS011;10426;49.420;8.390;2023-09-19T05:34:29;2.28;;;1.70;;
20535;SDS011;10426;49.420;8.390;2023-09-19T05:36:56;2.38;;;1.58;;
20535;SDS011;10426;49.420;8.390;2023-09-19T05:39:22;3.20;;;1.73;;
20535;SDS011;10426;49.420;8.390;2023-09-19T05:41:49;2.85;;;1.70;;
20535;SDS011;10426;49.420;8.390;2023-09-19T05:44:15;1.70;;;1.60;;
20535;SDS011;10426;49.420;8.390;2023-09-19T05:46:43;2.42;;;1.85;;
20535;SDS011;10426;49.420;8.390;2023-09-19T05:49:11;2.60;;;1.70;;
20535;SDS011;10426;49.420;8.390;2023-09-19T05:51:38;1.90;;;1.70;;
20535;SDS011;10426;49.420;8.390;2023-09-19T05:54:04;3.37;;;1.97;;
20535;SDS011;10426;49.420;8.390;2023-09-19T05:56:31;2.08;;;1.63;;
20535;SDS011;10426;49.420;8.390;2023-09-19T05:58:58;2.65;;;1.60;;
20535;SDS011;10426;49.420;8.390;2023-09-19T06:01:25;2.33;;;1.58;;
20535;SDS011;10426;49.420;8.390;2023-09-19T06:03:53;3.60;;;1.83;;
20535;SDS011;10426;49.420;8.390;2023-09-19T06:06:20;1.83;;;1.65;;
20535;SDS011;10426;49.420;8.390;2023-09-19T06:08:49;3.60;;;1.65;;
20535;SDS011;10426;49.420;8.390;2023-09-19T06:11:16;2.85;;;1.75;;
20535;SDS011;10426;49.420;8.390;2023-09-19T06:13:45;2.90;;;1.60;;
20535;SDS011;10426;49.420;8.390;2023-09-19T06:16:12;3.22;;;1.75;;
20535;SDS011;10426;49.420;8.390;2023-09-19T06:18:39;3.40;;;1.60;;
20535;SDS011;10426;49.420;8.390;2023-09-19T06:21:07;2.35;;;1.63;;
20535;SDS011;10426;49.420;8.390;2023-09-19T06:23:34;2.60;;;1.67;;
20535;SDS011;10426;49.420;8.390;2023-09-19T06:26:01;2.92;;;1.73;;
20535;SDS011;10426;49.420;8.390;2023-09-19T06:28:28;2.60;;;1.80;;
20535;SDS011;10426;49.420;8.390;2023-09-19T06:30:55;1.65;;;1.50;;
20535;SDS011;10426;49.420;8.390;2023-09-19T06:33:22;4.07;;;1.80;;
20535;SDS011;10426;49.420;8.390;2023-09-19T06:35:49;2.33;;;1.90;;
20535;SDS011;10426;49.420;8.390;2023-09-19T06:38:24;4.75;;;1.90;;
20535;SDS011;10426;49.420;8.390;2023-09-19T06:40:50;2.17;;;1.60;;
20535;SDS011;10426;49.420;8.390;2023-09-19T06:43:17;3.78;;;1.83;;
20535;SDS011;10426;49.420;8.390;2023-09-19T06:45:45;1.80;;;1.70;;
20535;SDS011;10426;49.420;8.390;2023-09-19T06:48:11;3.63;;;1.65;;
20535;SDS011;10426;49.420;8.390;2023-09-19T06:50:38;3.77;;;2.10;;
20535;SDS011;10426;49.420;8.390;2023-09-19T06:53:06;4.35;;;2.33;;
20535;SDS011;10426;49.420;8.390;2023-09-19T06:55:34;3.40;;;1.80;;
20535;SDS011;10426;49.420;8.390;2023-09-19T06:58:02;2.87;;;1.70;;
20535;SDS011;10426;49.420;8.390;2023-09-19T07:00:28;3.17;;;1.83;;
20535;SDS011;10426;49.420;8.390;2023-09-19T07:02:57;3.80;;;1.70;;
20535;SDS011;10426;49.420;8.390;2023-09-19T07:05:26;2.85;;;1.55;;
20535;SDS011;10426;49.420;8.390;2023-09-19T07:07:54;3.20;;;1.67;;
20535;SDS011;10426;49.420;8.390;2023-09-19T07:10:21;2.33;;;1.77;;
20535;SDS011;10426;49.420;8.390;2023-09-19T07:12:54;1.70;;;1.58;;
20535;SDS011;10426;49.420;8.390;2023-09-19T07:15:21;2.55;;;1.60;;
20535;SDS011;10426;49.420;8.390;2023-09-19T07:17:50;2.15;;;1.52;;
20535;SDS011;10426;49.420;8.390;2023-09-19T07:20:17;2.92;;;1.60;;
20535;SDS011;10426;49.420;8.390;2023-09-19T07:22:44;3.05;;;1.80;;
20535;SDS011;10426;49.420;8.390;2023-09-19T07:25:10;2.63;;;1.55;;
20535;SDS011;10426;49.420;8.390;2023-09-19T07:27:39;2.38;;;1.35;;
20535;SDS011;10426;49.420;8.390;2023-09-19T07:30:08;2.00;;;1.65;;
20535;SDS011;10426;49.420;8.390;2023-09-19T07:32:35;1.40;;;1.30;;
20535;SDS011;10426;49.420;8.390;2023-09-19T07:35:03;3.67;;;1.48;;
20535;SDS011;10426;49.420;8.390;2023-09-19T07:37:31;2.10;;;1.42;;
20535;SDS011;10426;49.420;8.390;2023-09-19T07:39:58;1.88;;;1.50;;
20535;SDS011;10426;49.420;8.390;2023-09-19T07:42:25;2.40;;;1.40;;
20535;SDS011;10426;49.420;8.390;2023-09-19T07:44:52;2.47;;;1.40;;
20535;SDS011;10426;49.420;8.390;2023-09-19T07:47:20;3.10;;;1.70;;
20535;SDS011;10426;49.420;8.390;2023-09-19T07:49:47;3.92;;;1.40;;
20535;SDS011;10426;49.420;8.390;2023-09-19T07:52:14;3.92;;;1.42;;
20535;SDS011;10426;49.420;8.390;2023-09-19T07:54:41;3.00;;;1.52;;
20535;SDS011;10426;49.420;8.390;2023-09-19T07:57:09;2.40;;;1.40;;
20535;SDS011;10426;49.420;8.390;2023-09-19T07:59:36;2.10;;;1.40;;
20535;SDS011;10426;49.420;8.390;2023-09-19T08:02:03;2.25;;;1.40;;
20535;SDS011;10426;49.420;8.390;2023-09-19T08:04:32;2.03;;;1.30;;
20535;SDS011;10426;49.420;8.390;2023-09-19T08:06:59;2.13;;;1.30;;
20535;SDS011;10426;49.420;8.390;2023-09-19T08:09:26;2.63;;;1.60;;
20535;SDS011;10426;49.420;8.390;2023-09-19T08:11:53;3.55;;;1.38;;
20535;SDS011;10426;49.420;8.390;2023-09-19T08:14:20;2.00;;;1.20;;
20535;SDS011;10426;49.420;8.390;2023-09-19T08:16:48;1.30;;;1.20;;
20535;SDS011;10426;49.420;8.390;2023-09-19T08:19:14;3.65;;;1.67;;
20535;SDS011;10426;49.420;8.390;2023-09-19T08:21:42;1.67;;;1.30;;
20535;SDS011;10426;49.420;8.390;2023-09-19T08:24:12;2.35;;;1.30;;
20535;SDS011;10426;49.420;8.390;2023-09-19T08:26:39;1.67;;;1.35;;
20535;SDS011;10426;49.420;8.390;2023-09-19T08:29:06;3.58;;;1.50;;
20535;SDS011;10426;49.420;8.390;2023-09-19T08:31:33;1.67;;;1.25;;
20535;SDS011;10426;49.420;8.390;2023-09-19T08:34:00;1.87;;;1.20;;
20535;SDS011;10426;49.420;8.390;2023-09-19T08:36:27;1.40;;;1.20;;
20535;SDS011;10426;49.420;8.390;2023-09-19T08:38:55;2.03;;;1.30;;
20535;SDS011;10426;49.420;8.390;2023-09-19T08:41:21;1.77;;;1.30;;
20535;SDS011;10426;49.420;8.390;2023-09-19T08:43:48;2.80;;;1.48;;
20535;SDS011;10426;49.420;8.390;2023-09-19T08:46:16;1.80;;;1.50;;
20535;SDS011;10426;49.420;8.390;2023-09-19T08:48:45;1.52;;;1.20;;
20535;SDS011;10426;49.420;8.390;2023-09-19T08:51:17;1.42;;;1.30;;
20535;SDS011;10426;49.420;8.390;2023-09-19T08:53:47;2.45;;;1.30;;
20535;SDS011;10426;49.420;8.390;2023-09-19T08:56:18;1.80;;;1.30;;
20535;SDS011;10426;49.420;8.390;2023-09-19T08:58:46;4.97;;;1.55;;
20535;SDS011;10426;49.420;8.390;2023-09-19T09:01:15;3.50;;;1.47;;
20535;SDS011;10426;49.420;8.390;2023-09-19T09:03:42;3.50;;;1.33;;
20535;SDS011;10426;49.420;8.390;2023-09-19T09:06:12;2.28;;;1.40;;
20535;SDS011;10426;49.420;8.390;2023-09-19T09:08:41;1.30;;;1.20;;
20535;SDS011;10426;49.420;8.390;2023-09-19T09:11:08;2.37;;;1.50;;
20535;SDS011;10426;49.420;8.390;2023-09-19T09:13:36;3.65;;;1.50;;
20535;SDS011;10426;49.420;8.390;2023-09-19T09:16:04;1.83;;;1.40;;
20535;SDS011;10426;49.420;8.390;2023-09-19T09:18:31;2.20;;;1.38;;
20535;SDS011;10426;49.420;8.390;2023-09-19T09:20:57;1.40;;;1.30;;
20535;SDS011;10426;49.420;8.390;2023-09-19T09:23:24;1.55;;;1.25;;
20535;SDS011;10426;49.420;8.390;2023-09-19T09:25:54;1.65;;;1.48;;
20535;SDS011;10426;49.420;8.390;2023-09-19T09:28:22;3.92;;;1.20;;
20535;SDS011;10426;49.420;8.390;2023-09-19T09:30:50;2.80;;;1.45;;
20535;SDS011;10426;49.420;8.390;2023-09-19T09:33:17;1.95;;;1.10;;
20535;SDS011;10426;49.420;8.390;2023-09-19T09:35:47;1.88;;;1.38;;
20535;SDS011;10426;49.420;8.390;2023-09-19T09:38:17;1.85;;;1.30;;
20535;SDS011;10426;49.420;8.390;2023-09-19T09:40:47;2.27;;;1.47;;
20535;SDS011;10426;49.420;8.390;2023-09-19T09:43:28;2.10;;;1.40;;
20535;SDS011;10426;49.420;8.390;2023-09-19T09:46:09;2.55;;;1.48;;
20535;SDS011;10426;49.420;8.390;2023-09-19T09:48:59;1.95;;;1.33;;
20535;SDS011;10426;49.420;8.390;2023-09-19T09:51:41;2.97;;;1.48;;
20535;SDS011;10426;49.420;8.390;2023-09-19T09:54:12;2.13;;;1.38;;
20535;SDS011;10426;49.420;8.390;2023-09-19T09:56:52;3.38;;;2.05;;
20535;SDS011;10426;49.420;8.390;2023-09-19T09:59:19;3.33;;;2.22;;
20535;SDS011;10426;49.420;8.390;2023-09-19T10:01:50;3.85;;;2.35;;
20535;SDS011;10426;49.420;8.390;2023-09-19T10:04:26;2.27;;;1.47;;
20535;SDS011;10426;49.420;8.390;2023-09-19T10:06:53;2.85;;;1.33;;
20535;SDS011;10426;49.420;8.390;2023-09-19T10:09:20;2.43;;;1.50;;
20535;SDS011;10426;49.420;8.390;2023-09-19T10:12:00;3.45;;;1.50;;
20535;SDS011;10426;49.420;8.390;2023-09-19T10:14:30;1.85;;;1.35;;
20535;SDS011;10426;49.420;8.390;2023-09-19T10:16:58;2.00;;;1.20;;
20535;SDS011;10426;49.420;8.390;2023-09-19T10:19:29;2.90;;;1.38;;
20535;SDS011;10426;49.420;8.390;2023-09-19T10:21:59;2.20;;;1.10;;
20535;SDS011;10426;49.420;8.390;2023-09-19T10:24:28;4.38;;;1.70;;
20535;SDS011;10426;49.420;8.390;2023-09-19T10:26:56;5.05;;;1.63;;
20535;SDS011;10426;49.420;8.390;2023-09-19T10:29:23;3.50;;;1.50;;
20535;SDS011;10426;49.420;8.390;2023-09-19T10:31:52;2.30;;;1.30;;
20535;SDS011;10426;49.420;8.390;2023-09-19T10:34:20;1.73;;;1.27;;
20535;SDS011;10426;49.420;8.390;2023-09-19T10:36:47;2.78;;;1.50;;
20535;SDS011;10426;49.420;8.390;2023-09-19T10:39:16;1.60;;;1.30;;
20535;SDS011;10426;49.420;8.390;2023-09-19T10:41:47;3.00;;;1.33;;
20535;SDS011;10426;49.420;8.390;2023-09-19T10:44:20;1.77;;;1.50;;
20535;SDS011;10426;49.420;8.390;2023-09-19T10:46:48;1.20;;;1.10;;
20535;SDS011;10426;49.420;8.390;2023-09-19T10:49:14;2.30;;;1.23;;
20535;SDS011;10426;49.420;8.390;2023-09-19T10:51:42;1.73;;;1.20;;
20535;SDS011;10426;49.420;8.390;2023-09-19T10:54:11;2.80;;;1.35;;
20535;SDS011;10426;49.420;8.390;2023-09-19T10:56:41;1.27;;;1.17;;
20535;SDS011;10426;49.420;8.390;2023-09-19T10:59:12;1.83;;;1.25;;
20535;SDS011;10426;49.420;8.390;2023-09-19T11:01:42;1.53;;;1.10;;
20535;SDS011;10426;49.420;8.390;2023-09-19T11:04:22;1.30;;;1.00;;
20535;SDS011;10426;49.420;8.390;2023-09-19T11:07:00;1.20;;;1.10;;
20535;SDS011;10426;49.420;8.390;2023-09-19T11:09:42;1.85;;;1.50;;
20535;SDS011;10426;49.420;8.390;2023-09-19T11:12:11;1.50;;;1.23;;
20535;SDS011;10426;49.420;8.390;2023-09-19T11:14:39;2.33;;;1.25;;
20535;SDS011;10426;49.420;8.390;2023-09-19T11:25:44;2.25;;;1.20;;
20535;SDS011;10426;49.420;8.390;2023-09-19T11:28:32;1.27;;;1.17;;
20535;SDS011;10426;49.420;8.390;2023-09-19T11:31:00;1.85;;;1.40;;
20535;SDS011;10426;49.420;8.390;2023-09-19T11:33:46;1.88;;;1.27;;
20535;SDS011;10426;49.420;8.390;2023-09-19T11:36:15;1.42;;;1.20;;
20535;SDS011;10426;49.420;8.390;2023-09-19T11:38:59;1.17;;;1.08;;
20535;SDS011;10426;49.420;8.390;2023-09-19T11:41:37;2.43;;;1.50;;
20535;SDS011;10426;49.420;8.390;2023-09-19T11:46:52;1.90;;;1.10;;
20535;SDS011;10426;49.420;8.390;2023-09-19T11:49:19;2.72;;;1.20;;
20535;SDS011;10426;49.420;8.390;2023-09-19T11:51:55;2.03;;;1.13;;
20535;SDS011;10426;49.420;8.390;2023-09-19T11:54:22;1.65;;;1.20;;
20535;SDS011;10426;49.420;8.390;2023-09-19T11:56:52;2.58;;;1.33;;
20535;SDS011;10426;49.420;8.390;2023-09-19T11:59:20;1.60;;;1.40;;
20535;SDS011;10426;49.420;8.390;2023-09-19T12:01:50;2.30;;;1.30;;
20535;SDS011;10426;49.420;8.390;2023-09-19T12:04:20;2.95;;;1.30;;
20535;SDS011;10426;49.420;8.390;2023-09-19T12:06:56;2.27;;;1.30;;
20535;SDS011;10426;49.420;8.390;2023-09-19T12:09:23;2.35;;;1.10;;
20535;SDS011;10426;49.420;8.390;2023-09-19T12:11:50;1.95;;;1.23;;
20535;SDS011;10426;49.420;8.390;2023-09-19T12:14:25;1.23;;;1.17;;
20535;SDS011;10426;49.420;8.390;2023-09-19T12:16:56;1.85;;;1.10;;
20535;SDS011;10426;49.420;8.390;2023-09-19T12:19:26;1.83;;;1.40;;
20535;SDS011;10426;49.420;8.390;2023-09-19T12:21:54;1.67;;;1.25;;
20535;SDS011;10426;49.420;8.390;2023-09-19T12:24:22;1.38;;;1.27;;
20535;SDS011;10426;49.420;8.390;2023-09-19T12:26:51;1.10;;;1.05;;
20535;SDS011;10426;49.420;8.390;2023-09-19T12:29:19;2.10;;;1.27;;
20535;SDS011;10426;49.420;8.390;2023-09-19T12:31:54;2.57;;;1.23;;
20535;SDS011;10426;49.420;8.390;2023-09-19T12:34:24;1.35;;;1.20;;
20535;SDS011;10426;49.420;8.390;2023-09-19T12:37:08;1.43;;;1.20;;
20535;SDS011;10426;49.420;8.390;2023-09-19T12:39:39;1.98;;;1.13;;
20535;SDS011;10426;49.420;8.390;2023-09-19T12:42:07;1.20;;;1.10;;
20535;SDS011;10426;49.420;8.390;2023-09-19T12:44:34;2.60;;;1.50;;
20535;SDS011;10426;49.420;8.390;2023-09-19T12:47:09;1.70;;;1.30;;
20535;SDS011;10426;49.420;8.390;2023-09-19T12:49:36;3.53;;;1.48;;
20535;SDS011;10426;49.420;8.390;2023-09-19T12:52:03;1.40;;;1.30;;
20535;SDS011;10426;49.420;8.390;2023-09-19T12:54:37;1.50;;;1.40;;
20535;SDS011;10426;49.420;8.390;2023-09-19T12:57:05;2.22;;;1.40;;
20535;SDS011;10426;49.420;8.390;2023-09-19T12:59:31;1.50;;;1.20;;
20535;SDS011;10426;49.420;8.390;2023-09-19T13:02:03;3.03;;;1.30;;
20535;SDS011;10426;49.420;8.390;2023-09-19T13:04:32;1.23;;;1.13;;
20535;SDS011;10426;49.420;8.390;2023-09-19T13:07:00;1.73;;;1.27;;
20535;SDS011;10426;49.420;8.390;2023-09-19T13:09:27;1.52;;;1.30;;
20535;SDS011;10426;49.420;8.390;2023-09-19T13:11:59;1.50;;;1.30;;
20535;SDS011;10426;49.420;8.390;2023-09-19T13:14:29;2.38;;;1.23;;
20535;SDS011;10426;49.420;8.390;2023-09-19T13:16:59;1.20;;;1.10;;
20535;SDS011;10426;49.420;8.390;2023-09-19T13:19:37;2.60;;;1.13;;
20535;SDS011;10426;49.420;8.390;2023-09-19T13:22:05;1.30;;;1.20;;
20535;SDS011;10426;49.420;8.390;2023-09-19T13:24:34;3.42;;;1.15;;
20535;SDS011;10426;49.420;8.390;2023-09-19T13:27:05;2.35;;;1.20;;
20535;SDS011;10426;49.420;8.390;2023-09-19T13:29:32;1.33;;;1.17;;
20535;SDS011;10426;49.420;8.390;2023-09-19T13:31:59;1.30;;;1.10;;
20535;SDS011;10426;49.420;8.390;2023-09-19T13:34:25;2.03;;;1.27;;
20535;SDS011;10426;49.420;8.390;2023-09-19T13:36:54;2.25;;;1.20;;
20535;SDS011;10426;49.420;8.390;2023-09-19T13:39:20;1.40;;;1.10;;
20535;SDS011;10426;49.420;8.390;2023-09-19T13:41:50;1.65;;;1.38;;
20535;SDS011;10426;49.420;8.390;2023-09-19T13:44:16;2.80;;;1.50;;
20535;SDS011;10426;49.420;8.390;2023-09-19T13:46:43;1.20;;;1.10;;
20535;SDS011;10426;49.420;8.390;2023-09-19T13:49:11;1.80;;;1.50;;
20535;SDS011;10426;49.420;8.390;2023-09-19T13:51:38;1.45;;;1.17;;
20535;SDS011;10426;49.420;8.390;2023-09-19T13:54:06;1.70;;;1.10;;
20535;SDS011;10426;49.420;8.390;2023-09-19T13:56:33;2.45;;;1.40;;
20535;SDS011;10426;49.420;8.390;2023-09-19T13:59:00;1.63;;;1.33;;
20535;SDS011;10426;49.420;8.390;2023-09-19T14:01:27;2.47;;;1.20;;
20535;SDS011;10426;49.420;8.390;2023-09-19T14:03:53;2.28;;;1.20;;
20535;SDS011;10426;49.420;8.390;2023-09-19T14:06:21;2.17;;;1.20;;
20535;SDS011;10426;49.420;8.390;2023-09-19T14:08:47;1.63;;;1.13;;
20535;SDS011;10426;49.420;8.390;2023-09-19T14:11:16;1.20;;;1.10;;
20535;SDS011;10426;49.420;8.390;2023-09-19T14:13:43;1.80;;;0.97;;
20535;SDS011;10426;49.420;8.390;2023-09-19T14:16:12;2.40;;;1.10;;
20535;SDS011;10426;49.420;8.390;2023-09-19T14:18:39;2.20;;;1.17;;
20535;SDS011;10426;49.420;8.390;2023-09-19T14:21:05;3.05;;;1.23;;
20535;SDS011;10426;49.420;8.390;2023-09-19T14:23:36;1.35;;;1.30;;
20535;SDS011;10426;49.420;8.390;2023-09-19T14:26:02;1.10;;;1.00;;
20535;SDS011;10426;49.420;8.390;2023-09-19T14:28:32;1.70;;;1.20;;
20535;SDS011;10426;49.420;8.390;2023-09-19T14:31:03;1.13;;;1.10;;
20535;SDS011;10426;49.420;8.390;2023-09-19T14:33:30;2.65;;;1.30;;
20535;SDS011;10426;49.420;8.390;2023-09-19T14:35:57;1.15;;;1.10;;
20535;SDS011;10426;49.420;8.390;2023-09-19T14:38:24;1.20;;;1.10;;
20535;SDS011;10426;49.420;8.390;2023-09-19T14:40:58;1.10;;;1.00;;
20535;SDS011;10426;49.420;8.390;2023-09-19T14:43:25;1.13;;;1.10;;
20535;SDS011;10426;49.420;8.390;2023-09-19T14:45:53;1.58;;;1.10;;
20535;SDS011;10426;49.420;8.390;2023-09-19T14:48:20;2.20;;;1.27;;
20535;SDS011;10426;49.420;8.390;2023-09-19T14:50:48;2.10;;;1.08;;
20535;SDS011;10426;49.420;8.390;2023-09-19T14:53:16;1.47;;;1.10;;
20535;SDS011;10426;49.420;8.390;2023-09-19T14:55:42;1.10;;;1.10;;
20535;SDS011;10426;49.420;8.390;2023-09-19T14:58:10;1.60;;;1.08;;
20535;SDS011;10426;49.420;8.390;2023-09-19T15:00:37;2.10;;;1.00;;
20535;SDS011;10426;49.420;8.390;2023-09-19T15:03:05;0.93;;;0.93;;
20535;SDS011;10426;49.420;8.390;2023-09-19T15:05:32;2.35;;;1.30;;
20535;SDS011;10426;49.420;8.390;2023-09-19T15:07:59;1.23;;;0.90;;